タシュケント の空港の天気 - METARとTAF

タシケント空港 ( UTTT / TAS ) - ウズベキスタン タシュケント
飛行場実況気象(Metar)
観測時間10/20 09:00 UZT (10/20 04:00 UTC)
風向・風速東北東 3m/s
視程10km以上
天気現象
なし
気温17℃
湿度36%
気圧1020hPa
METARUTTT 200400Z 07006KT CAVOK 17/02 Q1020 R08R/CLRD70 NOSIG
過去の天気等 Google飛行場航空写真 Wunderground天気予報

過去48時間のMETAR

飛行場予報(TAF)
発表時間: 10/20 04:00 UZT (10/19 23:00 UTC)
予報対象時間: 20日5時 UZT ~ 21日5時 UZT
風向・風速東 4m/s
視程7000m
なし
20日15時 UZT ~ 20日23時 UZT に一時的に
風向・風速西北西 5m/s 瞬間風速 10m/s
TAF UTTT 192300Z 2000/2024 08008KT 7000 NSC
TEMPO 2010/2018 30010G20KT